Time;durP1;ratioP1;P1;durP2;ratioP2;P2;SDS_P1;SDS_P2;PMS_P1;PMS_P2;Temp;Humidity;BMP_temperature;BMP_pressure;BME280_temperature;BME280_humidity;BME280_pressure;Samples;Min_cycle;Max_cycle;Signal;HPM_P1;HPM_P2
2024/03/29 00:01:33;;;;;;;14.20;6.13;;;;;;;;;;4993352;28;20405;-74
2024/03/29 00:03:58;;;;;;;13.75;7.55;;;;;;;;;;4992647;28;20096;-73
2024/03/29 00:06:24;;;;;;;13.30;7.55;;;;;;;;;;4992736;28;20050;-73
2024/03/29 00:08:51;;;;;;;15.30;7.82;;;;;;;;;;4993551;28;20522;-72
2024/03/29 00:11:17;;;;;;;16.60;7.00;;;;;;;;;;4993088;28;20054;-73
2024/03/29 00:13:42;;;;;;;7.82;5.05;;;;;;;;;;4992279;28;20410;-73
2024/03/29 00:16:08;;;;;;;15.90;6.75;;;;;;;;;;4991203;28;20433;-72
2024/03/29 00:18:34;;;;;;;9.32;6.90;;;;;;;;;;4993573;28;20124;-73
2024/03/29 00:21:00;;;;;;;9.10;6.63;;;;;;;;;;4993276;28;20188;-73
2024/03/29 00:23:28;;;;;;;9.73;6.53;;;;;;;;;;4992883;28;20447;-73
2024/03/29 00:25:57;;;;;;;11.38;6.70;;;;;;;;;;4992887;28;20066;-74
2024/03/29 00:28:24;;;;;;;14.00;6.38;;;;;;;;;;4993035;28;20045;-73
2024/03/29 00:30:51;;;;;;;14.43;8.13;;;;;;;;;;4994668;28;20403;-73
2024/03/29 00:33:17;;;;;;;13.80;7.78;;;;;;;;;;4995905;28;20051;-73
2024/03/29 00:35:43;;;;;;;21.38;9.25;;;;;;;;;;4994563;28;20058;-74
2024/03/29 00:38:09;;;;;;;10.43;7.60;;;;;;;;;;4993693;28;20487;-73
2024/03/29 00:40:36;;;;;;;21.05;7.20;;;;;;;;;;4994250;28;20395;-73
2024/03/29 00:43:02;;;;;;;11.15;7.53;;;;;;;;;;4975851;28;20038;-73
2024/03/29 00:45:28;;;;;;;25.33;11.32;;;;;;;;;;4997965;28;20034;-74
2024/03/29 00:47:55;;;;;;;6.97;5.65;;;;;;;;;;5006648;28;20560;-73
2024/03/29 00:50:21;;;;;;;20.02;10.65;;;;;;;;;;5010530;28;20029;-72
2024/03/29 00:52:48;;;;;;;13.88;6.00;;;;;;;;;;4994467;28;20116;-73
2024/03/29 00:55:14;;;;;;;21.80;9.65;;;;;;;;;;5010963;28;20058;-73
2024/03/29 00:57:41;;;;;;;12.35;8.50;;;;;;;;;;5004162;28;20121;-74
2024/03/29 01:00:09;;;;;;;11.20;7.75;;;;;;;;;;4996024;28;20037;-74
2024/03/29 01:02:36;;;;;;;17.63;9.60;;;;;;;;;;5008382;28;20514;-73
2024/03/29 01:05:02;;;;;;;28.27;9.20;;;;;;;;;;5009583;28;20301;-74
2024/03/29 01:07:31;;;;;;;10.00;6.45;;;;;;;;;;5010534;28;20045;-73
2024/03/29 01:09:58;;;;;;;19.73;8.93;;;;;;;;;;5011908;28;20030;-73
2024/03/29 01:12:24;;;;;;;9.07;6.32;;;;;;;;;;5011503;28;20391;-73
2024/03/29 01:14:50;;;;;;;14.00;8.13;;;;;;;;;;5011651;28;20038;-73
2024/03/29 01:17:16;;;;;;;11.25;7.82;;;;;;;;;;5010923;28;20139;-73
2024/03/29 01:19:42;;;;;;;9.82;5.97;;;;;;;;;;5011733;28;20081;-73
2024/03/29 01:22:08;;;;;;;8.70;6.05;;;;;;;;;;5011476;28;20134;-73
2024/03/29 01:24:34;;;;;;;14.88;8.15;;;;;;;;;;5010191;28;20033;-73
2024/03/29 01:27:01;;;;;;;14.65;9.45;;;;;;;;;;5010459;28;20101;-73
2024/03/29 01:29:27;;;;;;;13.75;8.48;;;;;;;;;;5009868;28;20034;-73
2024/03/29 01:31:52;;;;;;;16.50;9.95;;;;;;;;;;5009834;28;20049;-73
2024/03/29 01:34:18;;;;;;;20.83;7.80;;;;;;;;;;4993857;28;20037;-73
2024/03/29 01:36:44;;;;;;;11.65;7.75;;;;;;;;;;5009199;28;20080;-73
2024/03/29 01:39:14;;;;;;;14.90;8.15;;;;;;;;;;5010127;28;20045;-74
2024/03/29 01:41:40;;;;;;;12.07;7.95;;;;;;;;;;5010448;28;20405;-73
2024/03/29 01:44:07;;;;;;;16.10;9.13;;;;;;;;;;5011132;28;20036;-73
2024/03/29 01:46:34;;;;;;;7.50;6.75;;;;;;;;;;5009793;28;20461;-73
2024/03/29 01:49:00;;;;;;;11.50;7.28;;;;;;;;;;5010943;28;20416;-73
2024/03/29 01:51:25;;;;;;;10.52;6.60;;;;;;;;;;5010955;28;20121;-73
2024/03/29 01:53:53;;;;;;;12.25;7.50;;;;;;;;;;5009595;28;20034;-73
2024/03/29 01:56:19;;;;;;;10.95;8.25;;;;;;;;;;5011363;28;20140;-73
2024/03/29 01:58:45;;;;;;;9.15;7.03;;;;;;;;;;5012580;28;20172;-73
2024/03/29 02:01:11;;;;;;;6.45;5.80;;;;;;;;;;5011468;28;20553;-73
2024/03/29 02:03:37;;;;;;;13.77;8.38;;;;;;;;;;5009580;28;20045;-73
2024/03/29 02:06:05;;;;;;;12.30;7.25;;;;;;;;;;4992614;28;20046;-73
2024/03/29 02:08:32;;;;;;;9.65;6.97;;;;;;;;;;5009004;28;20124;-73
2024/03/29 02:10:59;;;;;;;11.82;8.18;;;;;;;;;;4992981;28;20569;-73
2024/03/29 02:13:25;;;;;;;7.45;5.53;;;;;;;;;;5010315;28;20042;-73
2024/03/29 02:15:51;;;;;;;8.88;7.88;;;;;;;;;;4993159;28;20053;-72
2024/03/29 02:18:17;;;;;;;9.77;7.70;;;;;;;;;;5011877;28;20088;-73
2024/03/29 02:20:43;;;;;;;12.77;8.00;;;;;;;;;;5009211;28;20529;-73
2024/03/29 02:23:10;;;;;;;9.48;6.28;;;;;;;;;;4992657;28;20418;-74
2024/03/29 02:25:36;;;;;;;8.23;5.85;;;;;;;;;;5007943;28;20111;-74
2024/03/29 02:28:05;;;;;;;19.17;6.50;;;;;;;;;;5010305;28;20041;-74
2024/03/29 02:30:31;;;;;;;8.13;5.78;;;;;;;;;;5008862;28;20103;-74
2024/03/29 02:33:00;;;;;;;11.90;8.15;;;;;;;;;;5008992;28;20045;-72
2024/03/29 02:35:26;;;;;;;7.38;5.63;;;;;;;;;;5008105;28;20421;-73
2024/03/29 02:37:52;;;;;;;9.55;6.13;;;;;;;;;;5009547;28;20037;-72
2024/03/29 02:40:18;;;;;;;14.90;7.15;;;;;;;;;;5010098;28;20033;-73
2024/03/29 02:42:44;;;;;;;15.35;7.60;;;;;;;;;;5010605;28;20088;-72
2024/03/29 02:45:10;;;;;;;13.38;7.38;;;;;;;;;;5010519;28;20070;-72
2024/03/29 02:47:36;;;;;;;13.40;7.88;;;;;;;;;;5010863;28;20472;-74
2024/03/29 02:50:03;;;;;;;8.32;5.38;;;;;;;;;;5010424;28;20116;-74
2024/03/29 02:52:29;;;;;;;10.20;4.68;;;;;;;;;;5010578;28;20589;-73
2024/03/29 02:54:55;;;;;;;13.75;6.28;;;;;;;;;;5013350;28;20533;-72
2024/03/29 02:57:21;;;;;;;5.28;4.78;;;;;;;;;;5014325;28;20036;-73
2024/03/29 02:59:47;;;;;;;12.20;7.32;;;;;;;;;;5014846;28;20034;-72
2024/03/29 03:02:13;;;;;;;13.07;7.15;;;;;;;;;;5013071;28;20063;-73
2024/03/29 03:04:39;;;;;;;7.43;6.38;;;;;;;;;;5014376;28;20072;-72
2024/03/29 03:12:34;;;;;;;6.57;5.30;;;;;;;;;;5012541;28;20462;-72
2024/03/29 03:15:00;;;;;;;8.23;6.43;;;;;;;;;;5011878;28;20040;-72
2024/03/29 03:17:26;;;;;;;6.25;5.25;;;;;;;;;;5012526;28;20406;-72
2024/03/29 03:19:52;;;;;;;9.13;5.40;;;;;;;;;;5007307;28;20104;-72
2024/03/29 03:22:18;;;;;;;6.97;6.28;;;;;;;;;;5009790;28;20045;-72
2024/03/29 03:24:44;;;;;;;9.18;6.30;;;;;;;;;;5013884;28;20042;-72
2024/03/29 03:27:10;;;;;;;9.35;7.22;;;;;;;;;;5011297;28;20078;-72
2024/03/29 03:29:36;;;;;;;11.48;5.75;;;;;;;;;;5012278;28;20053;-73
2024/03/29 03:32:02;;;;;;;14.15;6.85;;;;;;;;;;4988689;28;20137;-73
2024/03/29 03:34:28;;;;;;;7.45;4.63;;;;;;;;;;4992474;28;20045;-73
2024/03/29 03:36:54;;;;;;;12.40;8.02;;;;;;;;;;4991459;28;20133;-72
2024/03/29 03:39:20;;;;;;;13.15;6.80;;;;;;;;;;4993544;28;20042;-72
2024/03/29 03:41:46;;;;;;;9.90;5.63;;;;;;;;;;4992619;28;20124;-72
2024/03/29 03:44:12;;;;;;;10.85;6.53;;;;;;;;;;5009464;28;20049;-72
2024/03/29 03:46:38;;;;;;;5.72;4.78;;;;;;;;;;5011991;28;20038;-72
2024/03/29 03:49:04;;;;;;;5.80;5.10;;;;;;;;;;5013725;28;20041;-72
2024/03/29 03:51:30;;;;;;;5.35;4.82;;;;;;;;;;5011867;28;20132;-72
2024/03/29 03:53:57;;;;;;;9.75;7.50;;;;;;;;;;5011956;28;20034;-72
2024/03/29 03:56:23;;;;;;;8.60;5.60;;;;;;;;;;5013468;28;20423;-72
2024/03/29 03:58:49;;;;;;;13.52;6.68;;;;;;;;;;5013265;28;20038;-72
2024/03/29 04:01:15;;;;;;;8.95;5.53;;;;;;;;;;5014658;28;20057;-73
2024/03/29 04:03:41;;;;;;;8.55;5.63;;;;;;;;;;5013953;28;20112;-72
2024/03/29 04:06:06;;;;;;;11.27;5.90;;;;;;;;;;5012236;28;20461;-72
2024/03/29 04:08:32;;;;;;;9.23;5.93;;;;;;;;;;5012632;28;20123;-71
2024/03/29 04:11:02;;;;;;;8.23;5.65;;;;;;;;;;5011443;28;20030;-71
2024/03/29 04:13:28;;;;;;;8.23;6.03;;;;;;;;;;5012390;28;20125;-72
2024/03/29 04:16:00;;;;;;;7.05;6.18;;;;;;;;;;5011650;28;20446;-72
2024/03/29 04:18:27;;;;;;;8.55;6.30;;;;;;;;;;5011102;28;20037;-72
2024/03/29 04:21:00;;;;;;;5.65;5.25;;;;;;;;;;5012417;28;20038;-72
2024/03/29 04:23:26;;;;;;;15.07;7.60;;;;;;;;;;5007339;28;20533;-72
2024/03/29 04:25:55;;;;;;;12.27;5.68;;;;;;;;;;5004309;28;20042;-72
2024/03/29 04:28:21;;;;;;;16.25;5.95;;;;;;;;;;5010980;28;20041;-72
2024/03/29 04:33:37;;;;;;;17.67;7.20;;;;;;;;;;5010805;28;20037;-73
2024/03/29 04:36:03;;;;;;;8.48;6.65;;;;;;;;;;4994064;28;20046;-73
2024/03/29 04:38:31;;;;;;;12.20;4.65;;;;;;;;;;5012014;28;20519;-72
2024/03/29 04:40:57;;;;;;;10.30;5.13;;;;;;;;;;5009455;28;20597;-72
2024/03/29 04:43:27;;;;;;;7.80;6.72;;;;;;;;;;5011833;28;20044;-72
2024/03/29 04:46:22;;;;;;;10.77;6.13;;;;;;;;;;5011275;28;20524;-72
2024/03/29 04:48:49;;;;;;;6.20;4.45;;;;;;;;;;4999215;28;20045;-72
2024/03/29 04:51:16;;;;;;;5.78;5.28;;;;;;;;;;5006232;28;20445;-73
2024/03/29 04:53:42;;;;;;;13.52;5.22;;;;;;;;;;4996707;28;20037;-73
2024/03/29 04:56:08;;;;;;;14.10;6.93;;;;;;;;;;4992684;28;20519;-73
2024/03/29 04:58:34;;;;;;;8.68;5.70;;;;;;;;;;4991291;28;20034;-73
2024/03/29 05:00:59;;;;;;;7.22;5.03;;;;;;;;;;4991740;28;20159;-72
2024/03/29 05:03:25;;;;;;;13.73;5.63;;;;;;;;;;4992016;28;20487;-72
2024/03/29 05:05:51;;;;;;;11.80;6.10;;;;;;;;;;4992677;28;20070;-72
2024/03/29 05:08:21;;;;;;;15.00;6.22;;;;;;;;;;4992321;28;20037;-73
2024/03/29 05:10:49;;;;;;;5.03;4.47;;;;;;;;;;4994294;28;20042;-72
2024/03/29 05:13:16;;;;;;;15.20;5.97;;;;;;;;;;4992061;28;20133;-72
2024/03/29 05:15:42;;;;;;;13.07;6.50;;;;;;;;;;4990552;28;20540;-72
2024/03/29 05:18:08;;;;;;;11.73;7.10;;;;;;;;;;4992918;28;20406;-72
2024/03/29 05:20:34;;;;;;;8.40;5.45;;;;;;;;;;5002942;28;20029;-72
2024/03/29 05:23:00;;;;;;;15.02;5.13;;;;;;;;;;4995016;28;20048;-72
2024/03/29 05:25:26;;;;;;;11.82;5.63;;;;;;;;;;4990842;28;20586;-74
2024/03/29 05:27:52;;;;;;;7.55;6.45;;;;;;;;;;5009370;28;20064;-73
2024/03/29 05:30:18;;;;;;;14.40;6.30;;;;;;;;;;5013102;28;20493;-74
2024/03/29 05:32:44;;;;;;;7.47;6.50;;;;;;;;;;4994390;28;20100;-73
2024/03/29 05:35:10;;;;;;;7.28;4.88;;;;;;;;;;5010607;28;20220;-73
2024/03/29 05:37:36;;;;;;;5.65;4.28;;;;;;;;;;5011185;28;20072;-73
2024/03/29 05:40:05;;;;;;;5.60;5.07;;;;;;;;;;5011289;28;20087;-74
2024/03/29 05:42:31;;;;;;;5.70;4.13;;;;;;;;;;5005192;28;20312;-72
2024/03/29 05:44:57;;;;;;;5.20;4.28;;;;;;;;;;5005690;28;20026;-72
2024/03/29 05:47:22;;;;;;;17.25;5.07;;;;;;;;;;5008215;28;20088;-72
2024/03/29 05:49:48;;;;;;;22.65;7.10;;;;;;;;;;4996591;28;20034;-73
2024/03/29 05:52:15;;;;;;;9.00;6.35;;;;;;;;;;4991931;28;20038;-74
2024/03/29 05:54:41;;;;;;;9.98;4.53;;;;;;;;;;5008941;28;20034;-73
2024/03/29 05:57:08;;;;;;;10.68;5.60;;;;;;;;;;5006953;28;20057;-73
2024/03/29 05:59:34;;;;;;;10.65;4.65;;;;;;;;;;5008735;28;20040;-74
2024/03/29 06:02:00;;;;;;;5.80;4.20;;;;;;;;;;5004464;28;20536;-73
2024/03/29 06:04:37;;;;;;;7.43;4.63;;;;;;;;;;4996972;28;20046;-73
2024/03/29 06:07:03;;;;;;;4.70;4.40;;;;;;;;;;4998659;28;20049;-73
2024/03/29 06:09:29;;;;;;;6.18;3.85;;;;;;;;;;5007065;28;20030;-72
2024/03/29 06:11:55;;;;;;;4.88;4.35;;;;;;;;;;5007857;28;20084;-73
2024/03/29 06:17:25;;;;;;;3.97;3.67;;;;;;;;;;5004429;28;20049;-74
2024/03/29 06:19:51;;;;;;;7.15;4.72;;;;;;;;;;4997111;28;20089;-73
2024/03/29 06:22:17;;;;;;;12.73;4.78;;;;;;;;;;4987729;28;20109;-74
2024/03/29 06:24:44;;;;;;;7.38;5.78;;;;;;;;;;4989051;28;20069;-74
2024/03/29 06:27:10;;;;;;;10.23;5.55;;;;;;;;;;4993234;28;20514;-74
2024/03/29 06:29:36;;;;;;;8.55;4.80;;;;;;;;;;5000667;28;20034;-73
2024/03/29 06:32:02;;;;;;;4.82;4.43;;;;;;;;;;4990428;28;20532;-74
2024/03/29 06:34:31;;;;;;;12.63;5.78;;;;;;;;;;4990940;28;20044;-78
2024/03/29 06:36:57;;;;;;;7.03;5.07;;;;;;;;;;5007950;28;20140;-75
2024/03/29 06:39:24;;;;;;;6.13;4.75;;;;;;;;;;5007527;28;20030;-75
2024/03/29 06:41:50;;;;;;;6.10;4.00;;;;;;;;;;5007760;28;20698;-74
2024/03/29 06:44:16;;;;;;;10.07;5.45;;;;;;;;;;5001725;28;20138;-74
2024/03/29 06:46:42;;;;;;;7.05;4.55;;;;;;;;;;4997853;28;20654;-79
2024/03/29 06:49:08;;;;;;;19.90;4.60;;;;;;;;;;4987489;28;20466;-74
2024/03/29 06:51:34;;;;;;;4.63;4.18;;;;;;;;;;5004646;28;20499;-75
2024/03/29 06:54:00;;;;;;;15.93;5.45;;;;;;;;;;4988856;28;20038;-76
2024/03/29 06:56:26;;;;;;;6.65;4.97;;;;;;;;;;4989641;28;20041;-74
2024/03/29 06:58:52;;;;;;;5.70;3.58;;;;;;;;;;5008684;28;20129;-73
2024/03/29 07:01:18;;;;;;;4.88;4.45;;;;;;;;;;5006213;28;20054;-73
2024/03/29 07:03:44;;;;;;;7.97;5.85;;;;;;;;;;5004876;28;20092;-73
2024/03/29 07:06:10;;;;;;;7.88;5.10;;;;;;;;;;5007334;28;20541;-74
2024/03/29 07:08:36;;;;;;;5.85;3.78;;;;;;;;;;5008113;28;20041;-73
2024/03/29 07:11:21;;;;;;;7.93;4.90;;;;;;;;;;5007272;28;20069;-74
2024/03/29 07:13:47;;;;;;;3.83;3.53;;;;;;;;;;5008406;28;20115;-73
2024/03/29 07:16:13;;;;;;;11.68;5.60;;;;;;;;;;5008130;28;20070;-72
2024/03/29 07:18:39;;;;;;;11.98;5.60;;;;;;;;;;5007716;28;20084;-72
2024/03/29 07:21:05;;;;;;;4.88;4.35;;;;;;;;;;5009405;28;20470;-73
2024/03/29 07:23:30;;;;;;;4.60;4.05;;;;;;;;;;5009571;28;20506;-72
2024/03/29 07:26:03;;;;;;;7.50;5.07;;;;;;;;;;5009727;28;20045;-73
2024/03/29 07:28:30;;;;;;;6.28;4.53;;;;;;;;;;5011740;28;20530;-73
2024/03/29 07:30:56;;;;;;;5.05;4.55;;;;;;;;;;5009017;28;20038;-72
2024/03/29 07:33:26;;;;;;;8.65;5.13;;;;;;;;;;5010575;28;20026;-73
2024/03/29 07:35:52;;;;;;;7.32;6.05;;;;;;;;;;5009051;28;20042;-72
2024/03/29 07:38:20;;;;;;;10.50;6.43;;;;;;;;;;5009699;28;20522;-73
2024/03/29 07:40:46;;;;;;;8.20;5.57;;;;;;;;;;5012116;28;20036;-73
2024/03/29 07:43:13;;;;;;;8.90;6.45;;;;;;;;;;5013282;28;20050;-72
2024/03/29 07:45:44;;;;;;;15.00;6.72;;;;;;;;;;5012280;28;20052;-73
2024/03/29 07:48:11;;;;;;;12.57;5.68;;;;;;;;;;5013388;28;20042;-73
2024/03/29 07:50:37;;;;;;;11.20;5.10;;;;;;;;;;5013125;28;20038;-73
2024/03/29 07:53:02;;;;;;;18.92;6.47;;;;;;;;;;5012409;28;20116;-73
2024/03/29 07:55:28;;;;;;;9.32;6.25;;;;;;;;;;5012639;28;20049;-73
2024/03/29 07:57:54;;;;;;;8.68;6.28;;;;;;;;;;5012804;28;20445;-72
2024/03/29 08:00:20;;;;;;;7.07;5.70;;;;;;;;;;5011994;28;20057;-73
2024/03/29 08:02:46;;;;;;;6.45;5.72;;;;;;;;;;5012728;28;20128;-73
2024/03/29 08:05:12;;;;;;;7.38;6.05;;;;;;;;;;5012325;28;20041;-73
2024/03/29 08:07:38;;;;;;;9.98;6.05;;;;;;;;;;5011785;28;20037;-73
2024/03/29 08:10:06;;;;;;;9.02;7.15;;;;;;;;;;5013154;28;20413;-73
2024/03/29 08:12:32;;;;;;;6.47;5.95;;;;;;;;;;5013531;28;20045;-72
2024/03/29 08:14:58;;;;;;;13.07;4.72;;;;;;;;;;5012740;28;20096;-71
2024/03/29 08:17:24;;;;;;;7.65;6.10;;;;;;;;;;5013416;28;20490;-71
2024/03/29 08:19:51;;;;;;;5.35;4.85;;;;;;;;;;5013070;28;20555;-72
2024/03/29 08:22:17;;;;;;;9.13;4.47;;;;;;;;;;5013112;28;20053;-72
2024/03/29 08:24:44;;;;;;;8.20;6.30;;;;;;;;;;4995590;28;20056;-71
2024/03/29 08:27:29;;;;;;;8.77;5.57;;;;;;;;;;5011395;28;20053;-72
2024/03/29 08:29:55;;;;;;;10.93;7.28;;;;;;;;;;5011672;28;20037;-72
2024/03/29 08:32:21;;;;;;;5.47;5.03;;;;;;;;;;5014085;28;20061;-72
2024/03/29 08:34:47;;;;;;;9.30;6.40;;;;;;;;;;5012595;28;20060;-73
2024/03/29 08:37:13;;;;;;;7.28;5.68;;;;;;;;;;5011823;28;20522;-73
2024/03/29 08:39:39;;;;;;;6.55;5.80;;;;;;;;;;5010857;28;20033;-73
2024/03/29 08:42:05;;;;;;;8.00;6.72;;;;;;;;;;4978612;28;20038;-73
2024/03/29 08:44:32;;;;;;;6.07;5.43;;;;;;;;;;5012310;28;20038;-72
2024/03/29 08:46:59;;;;;;;7.50;6.47;;;;;;;;;;5011762;28;20072;-73
2024/03/29 08:49:24;;;;;;;8.88;6.78;;;;;;;;;;5010611;28;20117;-73
2024/03/29 08:51:50;;;;;;;6.75;5.95;;;;;;;;;;5010421;28;20153;-74
2024/03/29 08:54:16;;;;;;;6.18;5.60;;;;;;;;;;5010842;28;20414;-76
2024/03/29 08:56:42;;;;;;;8.63;7.03;;;;;;;;;;5009629;28;20053;-73
2024/03/29 08:59:09;;;;;;;6.13;5.55;;;;;;;;;;5012126;28;20076;-73
2024/03/29 09:01:53;;;;;;;7.78;6.50;;;;;;;;;;5010590;28;20061;-73
2024/03/29 09:04:20;;;;;;;6.65;5.93;;;;;;;;;;5011957;28;20026;-73
2024/03/29 09:06:45;;;;;;;7.70;6.97;;;;;;;;;;5009639;28;20050;-73
2024/03/29 09:09:13;;;;;;;5.57;5.03;;;;;;;;;;5010644;28;20465;-73
2024/03/29 09:11:39;;;;;;;10.07;5.82;;;;;;;;;;5011638;28;20038;-73
2024/03/29 09:14:07;;;;;;;6.75;5.78;;;;;;;;;;5011528;28;20406;-73
2024/03/29 09:16:33;;;;;;;8.95;6.85;;;;;;;;;;5010617;28;20077;-73
2024/03/29 09:18:59;;;;;;;9.73;5.72;;;;;;;;;;5010058;28;20038;-73
2024/03/29 09:21:25;;;;;;;6.03;5.50;;;;;;;;;;5010437;28;20045;-74
2024/03/29 09:23:52;;;;;;;8.55;6.95;;;;;;;;;;5011554;28;20034;-74
2024/03/29 09:26:19;;;;;;;7.05;6.32;;;;;;;;;;5010659;28;20052;-73
2024/03/29 09:28:45;;;;;;;6.45;5.38;;;;;;;;;;5009916;28;20569;-73
2024/03/29 09:31:11;;;;;;;8.50;6.85;;;;;;;;;;5010383;28;20728;-73
2024/03/29 09:33:37;;;;;;;6.85;6.20;;;;;;;;;;5011451;28;20057;-74
2024/03/29 09:36:03;;;;;;;7.45;6.72;;;;;;;;;;5010196;28;20510;-73
2024/03/29 09:38:28;;;;;;;9.50;8.52;;;;;;;;;;5011309;28;20042;-73
2024/03/29 09:41:15;;;;;;;7.45;6.75;;;;;;;;;;5011285;28;20053;-73
2024/03/29 09:43:44;;;;;;;6.55;5.88;;;;;;;;;;5011054;28;20428;-73
2024/03/29 09:46:10;;;;;;;8.82;7.13;;;;;;;;;;5011641;28;20049;-73
2024/03/29 09:48:37;;;;;;;11.43;7.18;;;;;;;;;;5009712;28;20084;-73
2024/03/29 09:51:04;;;;;;;6.97;6.32;;;;;;;;;;5009507;28;20037;-74
2024/03/29 09:53:31;;;;;;;8.23;7.43;;;;;;;;;;5009740;28;20069;-73
2024/03/29 09:55:57;;;;;;;6.78;5.40;;;;;;;;;;5009932;28;20458;-73
2024/03/29 09:58:23;;;;;;;7.72;6.63;;;;;;;;;;5009484;28;20129;-73
2024/03/29 10:00:48;;;;;;;8.20;7.25;;;;;;;;;;5010026;28;20038;-73
2024/03/29 10:03:14;;;;;;;6.70;6.07;;;;;;;;;;5010624;28;20430;-73
2024/03/29 10:05:40;;;;;;;6.55;5.82;;;;;;;;;;5010597;28;20424;-74
2024/03/29 10:08:07;;;;;;;8.40;7.65;;;;;;;;;;4996139;28;20574;-74
2024/03/29 10:10:33;;;;;;;12.18;8.48;;;;;;;;;;5012158;28;20116;-72
2024/03/29 10:12:59;;;;;;;7.00;5.75;;;;;;;;;;5010013;28;20038;-73
2024/03/29 10:15:28;;;;;;;11.27;8.15;;;;;;;;;;5009431;28;20034;-73
2024/03/29 10:17:54;;;;;;;8.45;7.65;;;;;;;;;;5009304;28;20038;-74
2024/03/29 10:20:22;;;;;;;11.52;7.97;;;;;;;;;;5010362;28;20040;-74
2024/03/29 10:22:48;;;;;;;13.15;6.93;;;;;;;;;;4992687;28;20038;-74
2024/03/29 10:25:14;;;;;;;9.23;8.07;;;;;;;;;;5009485;28;20407;-73
2024/03/29 10:27:41;;;;;;;11.20;7.68;;;;;;;;;;5009567;28;20494;-73
2024/03/29 10:30:08;;;;;;;8.13;6.93;;;;;;;;;;5011199;28;20032;-73
2024/03/29 10:32:43;;;;;;;5.80;5.20;;;;;;;;;;5009577;28;20030;-74
2024/03/29 10:35:09;;;;;;;7.95;7.25;;;;;;;;;;5008519;28;20034;-73
2024/03/29 10:37:39;;;;;;;8.95;7.18;;;;;;;;;;5011033;28;20533;-73
2024/03/29 10:40:08;;;;;;;9.13;7.50;;;;;;;;;;5009317;28;20495;-73
2024/03/29 10:42:36;;;;;;;7.28;6.55;;;;;;;;;;5010439;28;20037;-73
2024/03/29 10:45:02;;;;;;;11.30;7.40;;;;;;;;;;4992270;28;20037;-73
2024/03/29 10:47:29;;;;;;;7.68;6.53;;;;;;;;;;4993004;28;20041;-73
2024/03/29 10:49:55;;;;;;;14.52;9.57;;;;;;;;;;5009838;28;20042;-73
2024/03/29 10:52:21;;;;;;;14.25;9.57;;;;;;;;;;5010130;28;20038;-73
2024/03/29 10:54:48;;;;;;;9.13;6.95;;;;;;;;;;5009901;28;20034;-73
2024/03/29 10:57:20;;;;;;;12.23;9.35;;;;;;;;;;5009269;28;20085;-73
2024/03/29 11:00:20;;;;;;;9.40;8.40;;;;;;;;;;5008578;28;20038;-74
2024/03/29 11:03:03;;;;;;;12.20;10.73;;;;;;;;;;5001131;28;20045;-74
2024/03/29 11:05:30;;;;;;;9.95;8.95;;;;;;;;;;5007798;28;20042;-74
2024/03/29 11:07:55;;;;;;;11.35;8.23;;;;;;;;;;5008628;28;20042;-73
2024/03/29 11:10:29;;;;;;;10.15;8.68;;;;;;;;;;5009911;28;20068;-73
2024/03/29 11:13:03;;;;;;;10.95;9.00;;;;;;;;;;5008987;28;20044;-73
2024/03/29 11:15:30;;;;;;;6.75;5.93;;;;;;;;;;5012576;28;20065;-73
2024/03/29 11:17:56;;;;;;;9.68;8.63;;;;;;;;;;5012242;28;20065;-73
2024/03/29 11:20:34;;;;;;;11.25;7.72;;;;;;;;;;5012635;28;20084;-73
2024/03/29 11:23:05;;;;;;;13.80;10.23;;;;;;;;;;5013663;28;20076;-73
2024/03/29 11:25:41;;;;;;;10.88;8.25;;;;;;;;;;5011639;28;20044;-73
2024/03/29 11:28:13;;;;;;;17.70;9.48;;;;;;;;;;5013478;28;20033;-72
2024/03/29 11:30:40;;;;;;;17.67;9.23;;;;;;;;;;5012585;28;20068;-73
2024/03/29 11:33:06;;;;;;;11.65;7.97;;;;;;;;;;5012145;28;20128;-73
2024/03/29 11:35:33;;;;;;;14.02;8.60;;;;;;;;;;5011091;28;20124;-72
2024/03/29 11:37:59;;;;;;;12.13;8.45;;;;;;;;;;5013348;28;20129;-74
2024/03/29 11:40:29;;;;;;;14.52;10.00;;;;;;;;;;5012178;28;20379;-72
2024/03/29 11:42:56;;;;;;;9.18;8.10;;;;;;;;;;4996798;28;20050;-73
2024/03/29 11:45:22;;;;;;;9.27;8.32;;;;;;;;;;5012468;28;20529;-73
2024/03/29 11:47:48;;;;;;;10.07;9.10;;;;;;;;;;5012043;28;20050;-72
2024/03/29 11:50:15;;;;;;;10.55;9.25;;;;;;;;;;5013361;28;20033;-72
2024/03/29 11:52:40;;;;;;;12.82;9.85;;;;;;;;;;5012149;28;20065;-72
2024/03/29 11:55:07;;;;;;;13.02;9.30;;;;;;;;;;4994787;28;20034;-73
2024/03/29 11:57:34;;;;;;;12.70;8.02;;;;;;;;;;5013441;28;20573;-73
2024/03/29 12:00:00;;;;;;;17.73;12.07;;;;;;;;;;5013220;28;20033;-77
2024/03/29 12:02:44;;;;;;;12.43;9.77;;;;;;;;;;5012827;28;20050;-72
2024/03/29 12:05:11;;;;;;;14.52;9.07;;;;;;;;;;5011835;28;20042;-73
2024/03/29 12:07:37;;;;;;;10.90;8.40;;;;;;;;;;5011819;28;20038;-72
2024/03/29 12:10:03;;;;;;;13.30;10.07;;;;;;;;;;5013021;28;20038;-73
2024/03/29 12:12:35;;;;;;;19.83;10.70;;;;;;;;;;5013557;28;20044;-73
2024/03/29 12:15:02;;;;;;;32.92;10.13;;;;;;;;;;5013186;28;20040;-73
2024/03/29 12:17:30;;;;;;;8.85;8.07;;;;;;;;;;5014156;28;20030;-72
2024/03/29 12:20:05;;;;;;;9.95;8.90;;;;;;;;;;5014484;28;20030;-73
2024/03/29 12:22:31;;;;;;;12.77;8.88;;;;;;;;;;5011822;28;20422;-73
2024/03/29 12:24:57;;;;;;;13.40;9.75;;;;;;;;;;5010323;28;20465;-73
2024/03/29 12:27:24;;;;;;;16.42;9.48;;;;;;;;;;5013548;28;20069;-72
2024/03/29 12:29:50;;;;;;;11.10;7.82;;;;;;;;;;5013081;28;20050;-73
2024/03/29 12:32:21;;;;;;;14.00;9.95;;;;;;;;;;5012840;28;20096;-73
2024/03/29 12:34:47;;;;;;;10.00;9.02;;;;;;;;;;5011354;28;20042;-73
2024/03/29 12:37:13;;;;;;;11.93;10.55;;;;;;;;;;5010344;28;20525;-72
2024/03/29 12:39:41;;;;;;;17.15;11.38;;;;;;;;;;5012651;28;20065;-73
2024/03/29 12:42:07;;;;;;;16.77;9.85;;;;;;;;;;5012747;28;20046;-73
2024/03/29 12:44:33;;;;;;;20.98;10.85;;;;;;;;;;5013066;28;20079;-72
2024/03/29 12:46:59;;;;;;;12.25;8.20;;;;;;;;;;5011350;28;20045;-72
2024/03/29 12:49:26;;;;;;;13.48;8.50;;;;;;;;;;5012015;28;20030;-72
2024/03/29 12:51:55;;;;;;;11.18;9.25;;;;;;;;;;5013138;28;20100;-73
2024/03/29 12:54:21;;;;;;;12.45;9.80;;;;;;;;;;5013317;28;20026;-73
2024/03/29 12:56:47;;;;;;;10.70;8.63;;;;;;;;;;5012277;28;20529;-73
2024/03/29 12:59:14;;;;;;;9.20;7.28;;;;;;;;;;5011763;28;20417;-73
2024/03/29 13:01:40;;;;;;;10.82;8.10;;;;;;;;;;5012765;28;20065;-73
2024/03/29 13:04:06;;;;;;;11.38;8.75;;;;;;;;;;5012492;28;20030;-73
2024/03/29 13:06:32;;;;;;;15.30;11.35;;;;;;;;;;5011681;28;20056;-71
2024/03/29 13:08:58;;;;;;;13.63;10.48;;;;;;;;;;4978507;28;20029;-73
2024/03/29 13:11:25;;;;;;;17.55;8.93;;;;;;;;;;5012172;28;20022;-72
2024/03/29 13:13:51;;;;;;;13.45;8.18;;;;;;;;;;5011895;28;20041;-73
2024/03/29 13:16:17;;;;;;;11.57;9.77;;;;;;;;;;5010894;28;20056;-73
2024/03/29 13:18:43;;;;;;;18.75;10.43;;;;;;;;;;4994279;28;20034;-73
2024/03/29 13:21:10;;;;;;;23.02;11.45;;;;;;;;;;4993789;28;20044;-73
2024/03/29 13:23:36;;;;;;;17.73;9.30;;;;;;;;;;5010367;28;20053;-73
2024/03/29 13:26:03;;;;;;;14.90;11.10;;;;;;;;;;5010419;28;20037;-73
2024/03/29 13:28:29;;;;;;;16.65;10.15;;;;;;;;;;4994577;28;20065;-73
2024/03/29 13:30:56;;;;;;;8.32;7.30;;;;;;;;;;5011072;28;20072;-73
2024/03/29 13:33:22;;;;;;;17.92;12.00;;;;;;;;;;5011422;28;20044;-73
2024/03/29 13:35:51;;;;;;;13.95;10.10;;;;;;;;;;4992344;28;20049;-74
2024/03/29 13:38:21;;;;;;;17.80;13.38;;;;;;;;;;5011364;28;20034;-74
2024/03/29 13:40:47;;;;;;;16.88;10.25;;;;;;;;;;4993931;28;20033;-73
2024/03/29 13:43:13;;;;;;;10.52;8.85;;;;;;;;;;5009290;28;20049;-73
2024/03/29 13:45:39;;;;;;;22.60;7.68;;;;;;;;;;5009001;28;20034;-73
2024/03/29 13:48:05;;;;;;;15.15;8.75;;;;;;;;;;5009615;28;20045;-72
2024/03/29 13:50:31;;;;;;;13.63;8.77;;;;;;;;;;5010939;28;20037;-73
2024/03/29 13:52:58;;;;;;;14.93;10.98;;;;;;;;;;5009635;28;20057;-73
2024/03/29 13:55:25;;;;;;;16.10;10.88;;;;;;;;;;5009948;28;20530;-73
2024/03/29 13:57:53;;;;;;;13.88;10.32;;;;;;;;;;5010747;28;20422;-73
2024/03/29 14:00:19;;;;;;;13.10;11.15;;;;;;;;;;5009220;28;20104;-73
2024/03/29 14:02:45;;;;;;;13.75;10.20;;;;;;;;;;5010641;28;20069;-73
2024/03/29 14:05:12;;;;;;;11.35;10.18;;;;;;;;;;5009540;28;20042;-73
2024/03/29 14:07:38;;;;;;;21.30;12.75;;;;;;;;;;5010599;28;20041;-73
2024/03/29 14:12:52;;;;;;;11.70;10.50;;;;;;;;;;5009555;28;20038;-73
2024/03/29 14:15:20;;;;;;;13.07;8.32;;;;;;;;;;5008227;28;20413;-73
2024/03/29 14:17:46;;;;;;;18.08;11.80;;;;;;;;;;5010983;28;20030;-73
2024/03/29 14:20:12;;;;;;;17.48;12.02;;;;;;;;;;5009047;28;20414;-73
2024/03/29 14:22:38;;;;;;;16.88;10.98;;;;;;;;;;5009185;28;20050;-73
2024/03/29 14:25:04;;;;;;;13.27;8.70;;;;;;;;;;5009466;28;20487;-73
2024/03/29 14:27:31;;;;;;;18.17;9.70;;;;;;;;;;5009347;28;20436;-73
2024/03/29 14:29:58;;;;;;;15.38;10.95;;;;;;;;;;5008893;28;20521;-73
2024/03/29 14:32:24;;;;;;;16.80;12.50;;;;;;;;;;5010270;28;20498;-73
2024/03/29 14:34:50;;;;;;;18.90;9.80;;;;;;;;;;5008356;28;20084;-71
2024/03/29 14:37:16;;;;;;;14.80;12.15;;;;;;;;;;5009463;28;20068;-73
2024/03/29 14:39:43;;;;;;;10.25;8.45;;;;;;;;;;5010329;28;20038;-73
2024/03/29 14:42:12;;;;;;;19.55;8.57;;;;;;;;;;5008676;28;20104;-73
2024/03/29 14:44:39;;;;;;;18.08;11.57;;;;;;;;;;5008494;28;20132;-73
2024/03/29 14:47:24;;;;;;;13.85;11.00;;;;;;;;;;5009648;28;20038;-73